sensor_id;sensor_type;location;lat;lon;timestamp;pressure;altitude;pressure_sealevel;temperature;humidity
59588;BME280;45412;54.472;18.464;2022-08-01T00:00:48;99609.54;;;12.05;100.00
59588;BME280;45412;54.472;18.464;2022-08-01T00:03:36;99612.50;;;12.03;100.00
59588;BME280;45412;54.472;18.464;2022-08-01T00:06:24;99612.66;;;12.02;100.00
59588;BME280;45412;54.472;18.464;2022-08-01T00:09:15;99612.25;;;12.00;100.00
59588;BME280;45412;54.472;18.464;2022-08-01T00:12:13;99610.33;;;12.00;100.00
59588;BME280;45412;54.472;18.464;2022-08-01T00:15:03;99610.96;;;11.99;100.00
59588;BME280;45412;54.472;18.464;2022-08-01T00:17:51;99607.67;;;11.97;100.00
59588;BME280;45412;54.472;18.464;2022-08-01T00:20:39;99609.20;;;11.97;100.00
59588;BME280;45412;54.472;18.464;2022-08-01T00:23:27;99605.89;;;11.93;100.00
59588;BME280;45412;54.472;18.464;2022-08-01T00:26:15;99605.31;;;11.91;100.00
59588;BME280;45412;54.472;18.464;2022-08-01T00:29:03;99606.29;;;11.91;100.00
59588;BME280;45412;54.472;18.464;2022-08-01T00:31:58;99600.64;;;11.90;100.00
59588;BME280;45412;54.472;18.464;2022-08-01T00:34:46;99601.27;;;11.89;100.00
59588;BME280;45412;54.472;18.464;2022-08-01T00:37:35;99600.67;;;11.88;100.00
59588;BME280;45412;54.472;18.464;2022-08-01T00:40:23;99595.20;;;11.88;100.00
59588;BME280;45412;54.472;18.464;2022-08-01T00:43:11;99593.88;;;11.88;100.00
59588;BME280;45412;54.472;18.464;2022-08-01T00:45:59;99589.73;;;11.87;100.00
59588;BME280;45412;54.472;18.464;2022-08-01T00:48:48;99590.27;;;11.87;100.00
59588;BME280;45412;54.472;18.464;2022-08-01T00:51:36;99584.11;;;11.86;100.00
59588;BME280;45412;54.472;18.464;2022-08-01T00:54:26;99584.14;;;11.86;100.00
59588;BME280;45412;54.472;18.464;2022-08-01T00:57:14;99584.98;;;11.85;100.00
59588;BME280;45412;54.472;18.464;2022-08-01T01:00:15;99580.84;;;11.83;100.00
59588;BME280;45412;54.472;18.464;2022-08-01T01:03:04;99582.66;;;11.81;100.00
59588;BME280;45412;54.472;18.464;2022-08-01T01:09:05;99585.96;;;11.76;100.00
59588;BME280;45412;54.472;18.464;2022-08-01T01:15:41;99587.33;;;11.72;100.00
59588;BME280;45412;54.472;18.464;2022-08-01T01:18:50;99583.40;;;11.73;100.00
59588;BME280;45412;54.472;18.464;2022-08-01T01:30:58;99580.30;;;11.71;100.00
59588;BME280;45412;54.472;18.464;2022-08-01T01:33:48;99581.39;;;11.69;100.00
59588;BME280;45412;54.472;18.464;2022-08-01T01:36:39;99579.33;;;11.68;100.00
59588;BME280;45412;54.472;18.464;2022-08-01T01:39:28;99577.84;;;11.69;100.00
59588;BME280;45412;54.472;18.464;2022-08-01T01:42:20;99576.87;;;11.68;100.00
59588;BME280;45412;54.472;18.464;2022-08-01T01:45:12;99574.52;;;11.67;100.00
59588;BME280;45412;54.472;18.464;2022-08-01T01:48:02;99571.59;;;11.66;100.00
59588;BME280;45412;54.472;18.464;2022-08-01T01:50:52;99572.46;;;11.64;100.00
59588;BME280;45412;54.472;18.464;2022-08-01T01:53:40;99575.59;;;11.63;100.00
59588;BME280;45412;54.472;18.464;2022-08-01T01:56:29;99578.61;;;11.63;100.00
59588;BME280;45412;54.472;18.464;2022-08-01T01:59:21;99573.98;;;11.63;100.00
59588;BME280;45412;54.472;18.464;2022-08-01T02:02:13;99571.61;;;11.62;100.00
59588;BME280;45412;54.472;18.464;2022-08-01T02:05:06;99572.60;;;11.60;100.00
59588;BME280;45412;54.472;18.464;2022-08-01T02:07:56;99575.27;;;11.60;100.00
59588;BME280;45412;54.472;18.464;2022-08-01T02:10:46;99571.25;;;11.60;100.00
59588;BME280;45412;54.472;18.464;2022-08-01T02:14:02;99573.30;;;11.58;100.00
59588;BME280;45412;54.472;18.464;2022-08-01T02:16:51;99575.27;;;11.58;100.00
59588;BME280;45412;54.472;18.464;2022-08-01T02:19:41;99570.51;;;11.58;100.00
59588;BME280;45412;54.472;18.464;2022-08-01T02:22:39;99568.77;;;11.57;100.00
59588;BME280;45412;54.472;18.464;2022-08-01T02:25:39;99568.32;;;11.56;100.00
59588;BME280;45412;54.472;18.464;2022-08-01T02:28:56;99568.69;;;11.54;100.00
59588;BME280;45412;54.472;18.464;2022-08-01T02:31:48;99567.58;;;11.53;100.00
59588;BME280;45412;54.472;18.464;2022-08-01T02:34:36;99572.23;;;11.52;100.00
59588;BME280;45412;54.472;18.464;2022-08-01T02:37:26;99573.24;;;11.53;100.00
59588;BME280;45412;54.472;18.464;2022-08-01T02:40:16;99570.80;;;11.52;100.00
59588;BME280;45412;54.472;18.464;2022-08-01T02:43:05;99571.88;;;11.52;100.00
59588;BME280;45412;54.472;18.464;2022-08-01T02:46:00;99572.07;;;11.52;100.00
59588;BME280;45412;54.472;18.464;2022-08-01T02:48:51;99570.11;;;11.52;100.00
59588;BME280;45412;54.472;18.464;2022-08-01T02:51:41;99567.05;;;11.53;100.00
59588;BME280;45412;54.472;18.464;2022-08-01T02:54:32;99567.78;;;11.54;100.00
59588;BME280;45412;54.472;18.464;2022-08-01T02:57:23;99566.19;;;11.56;100.00
59588;BME280;45412;54.472;18.464;2022-08-01T03:00:32;99565.88;;;11.60;100.00
59588;BME280;45412;54.472;18.464;2022-08-01T03:03:23;99567.23;;;11.63;100.00
59588;BME280;45412;54.472;18.464;2022-08-01T03:06:13;99568.44;;;11.65;100.00
59588;BME280;45412;54.472;18.464;2022-08-01T03:09:03;99569.34;;;11.69;100.00
59588;BME280;45412;54.472;18.464;2022-08-01T03:11:56;99566.11;;;11.73;100.00
59588;BME280;45412;54.472;18.464;2022-08-01T03:14:47;99564.21;;;11.76;100.00
59588;BME280;45412;54.472;18.464;2022-08-01T03:17:39;99565.93;;;11.81;100.00
59588;BME280;45412;54.472;18.464;2022-08-01T03:20:30;99563.81;;;11.87;100.00
59588;BME280;45412;54.472;18.464;2022-08-01T03:23:21;99559.50;;;11.91;100.00
59588;BME280;45412;54.472;18.464;2022-08-01T03:26:27;99559.06;;;11.97;100.00
59588;BME280;45412;54.472;18.464;2022-08-01T03:29:21;99560.82;;;12.03;100.00
59588;BME280;45412;54.472;18.464;2022-08-01T03:32:11;99555.15;;;12.08;100.00
59588;BME280;45412;54.472;18.464;2022-08-01T03:35:00;99555.90;;;12.15;100.00
59588;BME280;45412;54.472;18.464;2022-08-01T03:37:52;99560.92;;;12.23;100.00
59588;BME280;45412;54.472;18.464;2022-08-01T03:41:09;99566.19;;;12.33;100.00
59588;BME280;45412;54.472;18.464;2022-08-01T03:44:14;99567.35;;;12.44;100.00
59588;BME280;45412;54.472;18.464;2022-08-01T03:47:07;99568.14;;;12.54;100.00
59588;BME280;45412;54.472;18.464;2022-08-01T03:49:58;99571.27;;;12.65;100.00
59588;BME280;45412;54.472;18.464;2022-08-01T03:52:48;99575.70;;;12.74;100.00
59588;BME280;45412;54.472;18.464;2022-08-01T03:55:39;99584.60;;;12.86;100.00
59588;BME280;45412;54.472;18.464;2022-08-01T03:58:30;99587.52;;;12.98;100.00
59588;BME280;45412;54.472;18.464;2022-08-01T04:01:19;99586.42;;;13.10;100.00
59588;BME280;45412;54.472;18.464;2022-08-01T04:04:07;99588.23;;;13.20;100.00
59588;BME280;45412;54.472;18.464;2022-08-01T04:06:55;99585.29;;;13.31;100.00
59588;BME280;45412;54.472;18.464;2022-08-01T04:09:43;99585.24;;;13.41;100.00
59588;BME280;45412;54.472;18.464;2022-08-01T04:12:31;99584.52;;;13.52;100.00
59588;BME280;45412;54.472;18.464;2022-08-01T04:15:20;99583.53;;;13.62;100.00
59588;BME280;45412;54.472;18.464;2022-08-01T04:18:08;99581.02;;;13.72;100.00
59588;BME280;45412;54.472;18.464;2022-08-01T04:20:56;99579.77;;;13.80;100.00
59588;BME280;45412;54.472;18.464;2022-08-01T04:23:46;99580.50;;;13.90;100.00
59588;BME280;45412;54.472;18.464;2022-08-01T04:26:41;99574.19;;;14.01;100.00
59588;BME280;45412;54.472;18.464;2022-08-01T04:29:31;99573.30;;;14.11;100.00
59588;BME280;45412;54.472;18.464;2022-08-01T04:32:21;99572.58;;;14.21;100.00
59588;BME280;45412;54.472;18.464;2022-08-01T04:35:11;99574.13;;;14.27;100.00
59588;BME280;45412;54.472;18.464;2022-08-01T04:38:25;99573.08;;;14.34;100.00
59588;BME280;45412;54.472;18.464;2022-08-01T04:41:15;99573.25;;;14.39;100.00
59588;BME280;45412;54.472;18.464;2022-08-01T04:44:04;99575.53;;;14.43;100.00
59588;BME280;45412;54.472;18.464;2022-08-01T04:46:54;99576.36;;;14.47;100.00
59588;BME280;45412;54.472;18.464;2022-08-01T04:49:44;99572.66;;;14.55;100.00
59588;BME280;45412;54.472;18.464;2022-08-01T04:52:37;99572.39;;;14.65;100.00
59588;BME280;45412;54.472;18.464;2022-08-01T04:55:27;99574.39;;;14.74;100.00
59588;BME280;45412;54.472;18.464;2022-08-01T04:58:16;99575.18;;;14.83;99.94
59588;BME280;45412;54.472;18.464;2022-08-01T05:01:05;99576.95;;;14.96;99.64
59588;BME280;45412;54.472;18.464;2022-08-01T05:03:53;99584.31;;;15.07;98.99
59588;BME280;45412;54.472;18.464;2022-08-01T05:06:41;99583.40;;;15.14;98.29
59588;BME280;45412;54.472;18.464;2022-08-01T05:09:30;99585.92;;;15.23;98.06
59588;BME280;45412;54.472;18.464;2022-08-01T05:12:18;99582.34;;;15.31;97.57
59588;BME280;45412;54.472;18.464;2022-08-01T05:15:07;99587.17;;;15.42;97.36
59588;BME280;45412;54.472;18.464;2022-08-01T05:18:01;99581.08;;;15.54;96.57
59588;BME280;45412;54.472;18.464;2022-08-01T05:20:49;99583.73;;;15.83;96.69
59588;BME280;45412;54.472;18.464;2022-08-01T05:23:37;99577.02;;;16.32;94.42
59588;BME280;45412;54.472;18.464;2022-08-01T05:26:30;99576.17;;;16.59;92.08
59588;BME280;45412;54.472;18.464;2022-08-01T05:29:18;99578.07;;;16.87;90.74
59588;BME280;45412;54.472;18.464;2022-08-01T05:32:06;99581.79;;;17.17;89.97
59588;BME280;45412;54.472;18.464;2022-08-01T05:34:55;99583.38;;;17.75;87.97
59588;BME280;45412;54.472;18.464;2022-08-01T05:37:43;99573.80;;;19.09;84.00
59588;BME280;45412;54.472;18.464;2022-08-01T05:40:31;99563.90;;;20.47;77.99
59588;BME280;45412;54.472;18.464;2022-08-01T05:43:20;99565.58;;;21.45;72.85
59588;BME280;45412;54.472;18.464;2022-08-01T05:46:15;99554.46;;;22.82;69.06
59588;BME280;45412;54.472;18.464;2022-08-01T05:49:04;99550.12;;;24.05;61.63
59588;BME280;45412;54.472;18.464;2022-08-01T05:51:53;99552.99;;;24.25;60.56
59588;BME280;45412;54.472;18.464;2022-08-01T05:54:41;99549.82;;;24.34;58.83
59588;BME280;45412;54.472;18.464;2022-08-01T05:57:29;99547.61;;;25.22;57.35
59588;BME280;45412;54.472;18.464;2022-08-01T06:00:17;99544.54;;;26.00;54.41
59588;BME280;45412;54.472;18.464;2022-08-01T06:03:05;99544.34;;;25.95;52.46
59588;BME280;45412;54.472;18.464;2022-08-01T06:05:54;99540.58;;;25.95;52.26
59588;BME280;45412;54.472;18.464;2022-08-01T06:08:41;99540.04;;;26.30;51.34
59588;BME280;45412;54.472;18.464;2022-08-01T06:11:29;99532.52;;;26.71;49.46
59588;BME280;45412;54.472;18.464;2022-08-01T06:14:18;99535.32;;;26.82;49.37
59588;BME280;45412;54.472;18.464;2022-08-01T06:17:06;99535.66;;;27.63;47.47
59588;BME280;45412;54.472;18.464;2022-08-01T06:19:54;99535.73;;;28.62;43.42
59588;BME280;45412;54.472;18.464;2022-08-01T06:22:43;99535.73;;;29.33;42.28
59588;BME280;45412;54.472;18.464;2022-08-01T06:25:39;99537.31;;;30.17;39.98
59588;BME280;45412;54.472;18.464;2022-08-01T06:28:27;99535.66;;;30.76;37.93
59588;BME280;45412;54.472;18.464;2022-08-01T06:31:16;99531.85;;;31.27;36.49
59588;BME280;45412;54.472;18.464;2022-08-01T06:34:04;99529.30;;;31.71;35.28
59588;BME280;45412;54.472;18.464;2022-08-01T06:36:52;99526.67;;;31.86;34.15
59588;BME280;45412;54.472;18.464;2022-08-01T06:39:40;99530.28;;;32.09;33.68
59588;BME280;45412;54.472;18.464;2022-08-01T06:42:30;99529.43;;;32.46;32.16
59588;BME280;45412;54.472;18.464;2022-08-01T06:45:24;99532.46;;;32.85;31.24
59588;BME280;45412;54.472;18.464;2022-08-01T06:48:14;99530.74;;;33.34;30.60
59588;BME280;45412;54.472;18.464;2022-08-01T06:51:02;99526.55;;;33.65;29.97
59588;BME280;45412;54.472;18.464;2022-08-01T06:53:55;99527.98;;;34.27;28.77
59588;BME280;45412;54.472;18.464;2022-08-01T06:56:44;99524.86;;;34.85;28.29
59588;BME280;45412;54.472;18.464;2022-08-01T06:59:32;99522.47;;;35.29;27.35
59588;BME280;45412;54.472;18.464;2022-08-01T07:02:20;99518.08;;;35.70;26.28
59588;BME280;45412;54.472;18.464;2022-08-01T07:05:09;99513.13;;;36.14;25.49
59588;BME280;45412;54.472;18.464;2022-08-01T07:07:56;99512.69;;;36.54;25.33
59588;BME280;45412;54.472;18.464;2022-08-01T07:10:45;99514.48;;;36.84;24.38
59588;BME280;45412;54.472;18.464;2022-08-01T07:13:33;99515.70;;;36.90;23.82
59588;BME280;45412;54.472;18.464;2022-08-01T07:16:30;99517.78;;;37.04;23.17
59588;BME280;45412;54.472;18.464;2022-08-01T07:19:18;99521.92;;;36.70;23.48
59588;BME280;45412;54.472;18.464;2022-08-01T07:22:06;99518.67;;;36.96;23.57
59588;BME280;45412;54.472;18.464;2022-08-01T07:24:57;99520.95;;;37.01;23.18
59588;BME280;45412;54.472;18.464;2022-08-01T07:27:45;99518.44;;;36.24;23.96
59588;BME280;45412;54.472;18.464;2022-08-01T07:30:34;99515.13;;;35.93;24.33
59588;BME280;45412;54.472;18.464;2022-08-01T07:33:22;99513.85;;;36.17;23.43
59588;BME280;45412;54.472;18.464;2022-08-01T07:36:10;99516.17;;;36.46;23.28
59588;BME280;45412;54.472;18.464;2022-08-01T07:38:58;99514.85;;;36.63;22.75
59588;BME280;45412;54.472;18.464;2022-08-01T07:41:47;99516.39;;;36.40;23.45
59588;BME280;45412;54.472;18.464;2022-08-01T07:44:54;99517.66;;;36.88;22.96
59588;BME280;45412;54.472;18.464;2022-08-01T07:47:43;99516.81;;;37.27;21.84
59588;BME280;45412;54.472;18.464;2022-08-01T07:50:32;99512.02;;;37.55;21.99
59588;BME280;45412;54.472;18.464;2022-08-01T07:53:21;99516.87;;;37.78;21.57
59588;BME280;45412;54.472;18.464;2022-08-01T07:56:08;99511.96;;;37.62;21.57
59588;BME280;45412;54.472;18.464;2022-08-01T07:58:57;99510.13;;;37.94;20.68
59588;BME280;45412;54.472;18.464;2022-08-01T08:01:45;99505.76;;;37.61;20.84
59588;BME280;45412;54.472;18.464;2022-08-01T08:04:35;99506.73;;;35.94;22.38
59588;BME280;45412;54.472;18.464;2022-08-01T08:07:22;99512.96;;;35.28;23.30
59588;BME280;45412;54.472;18.464;2022-08-01T08:10:10;99502.42;;;35.84;22.17
59588;BME280;45412;54.472;18.464;2022-08-01T08:13:00;99508.27;;;36.50;21.60
59588;BME280;45412;54.472;18.464;2022-08-01T08:15:49;99505.96;;;36.83;21.82
59588;BME280;45412;54.472;18.464;2022-08-01T08:18:37;99504.13;;;35.99;22.60
59588;BME280;45412;54.472;18.464;2022-08-01T08:21:25;99506.48;;;36.18;22.21
59588;BME280;45412;54.472;18.464;2022-08-01T08:24:13;99506.52;;;35.65;22.38
59588;BME280;45412;54.472;18.464;2022-08-01T08:27:15;99505.46;;;36.12;22.28
59588;BME280;45412;54.472;18.464;2022-08-01T08:30:05;99507.33;;;36.75;21.31
59588;BME280;45412;54.472;18.464;2022-08-01T08:32:58;99506.19;;;37.09;20.73
59588;BME280;45412;54.472;18.464;2022-08-01T08:35:46;99506.48;;;37.09;20.61
59588;BME280;45412;54.472;18.464;2022-08-01T08:38:40;99498.80;;;37.23;20.51
59588;BME280;45412;54.472;18.464;2022-08-01T08:41:35;99499.89;;;37.68;20.43
59588;BME280;45412;54.472;18.464;2022-08-01T08:44:25;99506.98;;;37.91;20.07
59588;BME280;45412;54.472;18.464;2022-08-01T08:47:14;99508.25;;;38.29;19.57
59588;BME280;45412;54.472;18.464;2022-08-01T08:50:07;99509.29;;;38.09;19.23
59588;BME280;45412;54.472;18.464;2022-08-01T08:52:58;99510.81;;;36.89;20.03
59588;BME280;45412;54.472;18.464;2022-08-01T08:55:53;99511.42;;;35.87;21.47
59588;BME280;45412;54.472;18.464;2022-08-01T08:58:45;99508.67;;;36.05;21.78
59588;BME280;45412;54.472;18.464;2022-08-01T09:01:33;99511.61;;;36.79;20.72
59588;BME280;45412;54.472;18.464;2022-08-01T09:04:23;99512.05;;;37.46;19.76
59588;BME280;45412;54.472;18.464;2022-08-01T09:07:13;99509.89;;;37.81;19.14
59588;BME280;45412;54.472;18.464;2022-08-01T09:10:03;99508.47;;;37.51;18.87
59588;BME280;45412;54.472;18.464;2022-08-01T09:13:13;99506.02;;;37.42;19.55
59588;BME280;45412;54.472;18.464;2022-08-01T09:16:02;99502.33;;;37.57;19.30
59588;BME280;45412;54.472;18.464;2022-08-01T09:18:52;99503.41;;;37.46;19.22
59588;BME280;45412;54.472;18.464;2022-08-01T09:21:58;99507.63;;;37.34;19.37
59588;BME280;45412;54.472;18.464;2022-08-01T09:25:08;99506.33;;;37.69;19.56
59588;BME280;45412;54.472;18.464;2022-08-01T09:28:05;99507.72;;;37.99;19.18
59588;BME280;45412;54.472;18.464;2022-08-01T09:30:56;99506.04;;;38.26;18.74
59588;BME280;45412;54.472;18.464;2022-08-01T09:36:54;99509.94;;;38.66;17.97
59588;BME280;45412;54.472;18.464;2022-08-01T09:39:54;99505.55;;;38.64;17.42
59588;BME280;45412;54.472;18.464;2022-08-01T09:42:45;99504.75;;;38.33;17.70
59588;BME280;45412;54.472;18.464;2022-08-01T09:45:39;99502.83;;;38.35;17.63
59588;BME280;45412;54.472;18.464;2022-08-01T09:48:32;99506.86;;;38.60;17.56
59588;BME280;45412;54.472;18.464;2022-08-01T09:51:32;99505.00;;;39.03;17.14
59588;BME280;45412;54.472;18.464;2022-08-01T09:54:51;99503.17;;;39.29;16.78
59588;BME280;45412;54.472;18.464;2022-08-01T09:57:39;99506.52;;;39.40;17.35
59588;BME280;45412;54.472;18.464;2022-08-01T10:00:27;99513.02;;;39.48;19.40
59588;BME280;45412;54.472;18.464;2022-08-01T10:03:32;99512.52;;;39.60;19.96
59588;BME280;45412;54.472;18.464;2022-08-01T10:06:21;99507.07;;;39.79;20.05
59588;BME280;45412;54.472;18.464;2022-08-01T10:09:13;99513.88;;;39.61;20.02
59588;BME280;45412;54.472;18.464;2022-08-01T10:12:03;99512.89;;;39.15;20.44
59588;BME280;45412;54.472;18.464;2022-08-01T10:14:52;99505.58;;;38.83;20.99
59588;BME280;45412;54.472;18.464;2022-08-01T10:17:54;99509.15;;;38.77;20.87
59588;BME280;45412;54.472;18.464;2022-08-01T10:20:45;99508.00;;;38.79;21.23
59588;BME280;45412;54.472;18.464;2022-08-01T10:23:36;99507.60;;;38.74;21.36
59588;BME280;45412;54.472;18.464;2022-08-01T10:26:29;99508.05;;;38.61;21.71
59588;BME280;45412;54.472;18.464;2022-08-01T10:29:20;99508.88;;;38.56;21.58
59588;BME280;45412;54.472;18.464;2022-08-01T10:32:30;99511.08;;;38.69;21.71
59588;BME280;45412;54.472;18.464;2022-08-01T10:35:19;99508.05;;;38.61;21.40
59588;BME280;45412;54.472;18.464;2022-08-01T10:38:28;99507.44;;;38.36;21.87
59588;BME280;45412;54.472;18.464;2022-08-01T10:41:18;99509.23;;;38.19;21.86
59588;BME280;45412;54.472;18.464;2022-08-01T10:44:08;99510.86;;;37.98;21.98
59588;BME280;45412;54.472;18.464;2022-08-01T10:47:11;99507.45;;;37.11;22.22
59588;BME280;45412;54.472;18.464;2022-08-01T10:50:44;99504.74;;;35.48;24.19
59588;BME280;45412;54.472;18.464;2022-08-01T10:53:35;99506.13;;;35.21;24.96
59588;BME280;45412;54.472;18.464;2022-08-01T10:56:46;99506.70;;;35.21;25.02
59588;BME280;45412;54.472;18.464;2022-08-01T10:59:35;99505.77;;;34.33;25.98
59588;BME280;45412;54.472;18.464;2022-08-01T11:03:02;99509.73;;;33.18;27.39
59588;BME280;45412;54.472;18.464;2022-08-01T11:05:51;99509.15;;;32.30;28.67
59588;BME280;45412;54.472;18.464;2022-08-01T11:08:42;99509.69;;;31.81;29.35
59588;BME280;45412;54.472;18.464;2022-08-01T11:18:03;99515.52;;;30.90;30.68
59588;BME280;45412;54.472;18.464;2022-08-01T11:21:00;99517.06;;;30.99;30.56
59588;BME280;45412;54.472;18.464;2022-08-01T11:24:11;99517.45;;;31.39;30.52
59588;BME280;45412;54.472;18.464;2022-08-01T11:33:00;99519.95;;;32.86;27.75
59588;BME280;45412;54.472;18.464;2022-08-01T11:42:18;99517.57;;;32.15;27.74
59588;BME280;45412;54.472;18.464;2022-08-01T11:45:08;99520.85;;;31.74;28.60
59588;BME280;45412;54.472;18.464;2022-08-01T11:48:17;99522.15;;;31.51;29.23
59588;BME280;45412;54.472;18.464;2022-08-01T11:51:15;99526.77;;;31.33;29.08
59588;BME280;45412;54.472;18.464;2022-08-01T11:54:12;99525.54;;;31.13;29.46
59588;BME280;45412;54.472;18.464;2022-08-01T11:57:04;99529.56;;;30.96;30.20
59588;BME280;45412;54.472;18.464;2022-08-01T11:59:56;99526.11;;;30.65;30.20
59588;BME280;45412;54.472;18.464;2022-08-01T12:03:06;99527.45;;;30.12;31.23
59588;BME280;45412;54.472;18.464;2022-08-01T12:05:55;99525.21;;;29.38;32.37
59588;BME280;45412;54.472;18.464;2022-08-01T12:08:44;99535.17;;;28.80;33.67
59588;BME280;45412;54.472;18.464;2022-08-01T12:11:32;99535.96;;;28.43;34.91
59588;BME280;45412;54.472;18.464;2022-08-01T12:14:24;99535.77;;;28.16;35.58
59588;BME280;45412;54.472;18.464;2022-08-01T12:17:12;99537.94;;;27.88;36.25
59588;BME280;45412;54.472;18.464;2022-08-01T12:20:07;99536.93;;;27.63;37.06
59588;BME280;45412;54.472;18.464;2022-08-01T12:23:07;99538.30;;;27.46;37.70
59588;BME280;45412;54.472;18.464;2022-08-01T12:25:55;99532.98;;;27.16;38.29
59588;BME280;45412;54.472;18.464;2022-08-01T12:28:44;99540.12;;;26.97;38.95
59588;BME280;45412;54.472;18.464;2022-08-01T12:31:36;99536.30;;;26.77;39.61
59588;BME280;45412;54.472;18.464;2022-08-01T12:34:28;99539.75;;;26.54;39.95
59588;BME280;45412;54.472;18.464;2022-08-01T12:37:17;99544.97;;;26.39;40.49
59588;BME280;45412;54.472;18.464;2022-08-01T12:40:15;99540.41;;;26.33;40.52
59588;BME280;45412;54.472;18.464;2022-08-01T12:43:07;99543.17;;;26.21;40.87
59588;BME280;45412;54.472;18.464;2022-08-01T12:46:02;99544.77;;;26.13;41.65
59588;BME280;45412;54.472;18.464;2022-08-01T12:48:51;99545.79;;;26.10;42.08
59588;BME280;45412;54.472;18.464;2022-08-01T12:51:39;99547.23;;;26.11;41.97
59588;BME280;45412;54.472;18.464;2022-08-01T12:54:28;99545.23;;;26.16;41.77
59588;BME280;45412;54.472;18.464;2022-08-01T12:57:23;99548.03;;;26.11;41.68
59588;BME280;45412;54.472;18.464;2022-08-01T13:00:30;99551.66;;;26.05;41.95
59588;BME280;45412;54.472;18.464;2022-08-01T13:03:20;99546.02;;;26.02;41.69
59588;BME280;45412;54.472;18.464;2022-08-01T13:06:14;99553.70;;;26.02;40.38
59588;BME280;45412;54.472;18.464;2022-08-01T13:09:09;99555.80;;;25.89;40.38
59588;BME280;45412;54.472;18.464;2022-08-01T13:12:08;99558.34;;;25.72;40.94
59588;BME280;45412;54.472;18.464;2022-08-01T13:14:57;99560.77;;;25.57;41.60
59588;BME280;45412;54.472;18.464;2022-08-01T13:17:45;99560.42;;;25.46;42.10
59588;BME280;45412;54.472;18.464;2022-08-01T13:20:34;99561.67;;;25.42;41.79
59588;BME280;45412;54.472;18.464;2022-08-01T13:23:22;99565.24;;;25.30;41.88
59588;BME280;45412;54.472;18.464;2022-08-01T13:26:48;99568.41;;;25.06;43.07
59588;BME280;45412;54.472;18.464;2022-08-01T13:29:39;99572.13;;;25.02;43.52
59588;BME280;45412;54.472;18.464;2022-08-01T13:32:30;99570.98;;;25.07;43.58
59588;BME280;45412;54.472;18.464;2022-08-01T13:35:20;99571.82;;;25.12;43.47
59588;BME280;45412;54.472;18.464;2022-08-01T13:38:08;99575.42;;;25.14;43.49
59588;BME280;45412;54.472;18.464;2022-08-01T13:40:59;99577.87;;;25.17;43.34
59588;BME280;45412;54.472;18.464;2022-08-01T13:43:47;99575.85;;;25.15;42.96
59588;BME280;45412;54.472;18.464;2022-08-01T13:46:46;99578.05;;;25.07;43.30
59588;BME280;45412;54.472;18.464;2022-08-01T13:49:37;99583.73;;;25.06;43.45
59588;BME280;45412;54.472;18.464;2022-08-01T13:52:28;99581.30;;;25.09;43.87
59588;BME280;45412;54.472;18.464;2022-08-01T13:55:16;99582.13;;;25.11;44.03
59588;BME280;45412;54.472;18.464;2022-08-01T13:58:04;99582.84;;;25.03;44.39
59588;BME280;45412;54.472;18.464;2022-08-01T14:00:53;99588.73;;;24.88;44.85
59588;BME280;45412;54.472;18.464;2022-08-01T14:03:42;99589.48;;;24.76;45.47
59588;BME280;45412;54.472;18.464;2022-08-01T14:06:32;99589.73;;;24.63;46.31
59588;BME280;45412;54.472;18.464;2022-08-01T14:09:20;99595.21;;;24.54;46.77
59588;BME280;45412;54.472;18.464;2022-08-01T14:12:11;99594.31;;;24.56;47.03
59588;BME280;45412;54.472;18.464;2022-08-01T14:14:59;99595.80;;;24.60;46.87
59588;BME280;45412;54.472;18.464;2022-08-01T14:17:47;99599.81;;;24.62;46.80
59588;BME280;45412;54.472;18.464;2022-08-01T14:20:38;99602.65;;;24.64;46.93
59588;BME280;45412;54.472;18.464;2022-08-01T14:23:27;99604.05;;;24.70;46.90
59588;BME280;45412;54.472;18.464;2022-08-01T14:26:16;99599.52;;;24.77;47.25
59588;BME280;45412;54.472;18.464;2022-08-01T14:29:04;99602.91;;;24.81;47.16
59588;BME280;45412;54.472;18.464;2022-08-01T14:31:52;99604.32;;;24.78;47.33
59588;BME280;45412;54.472;18.464;2022-08-01T14:34:40;99613.05;;;24.75;47.52
59588;BME280;45412;54.472;18.464;2022-08-01T14:37:28;99609.48;;;24.76;47.64
59588;BME280;45412;54.472;18.464;2022-08-01T14:40:24;99610.45;;;24.72;46.97
59588;BME280;45412;54.472;18.464;2022-08-01T14:43:13;99613.36;;;24.68;47.00
59588;BME280;45412;54.472;18.464;2022-08-01T14:46:13;99613.45;;;24.61;46.94
59588;BME280;45412;54.472;18.464;2022-08-01T14:49:02;99619.90;;;24.61;46.85
59588;BME280;45412;54.472;18.464;2022-08-01T14:51:50;99618.58;;;24.67;47.13
59588;BME280;45412;54.472;18.464;2022-08-01T14:54:38;99619.42;;;24.70;46.44
59588;BME280;45412;54.472;18.464;2022-08-01T14:57:27;99619.73;;;24.69;46.21
59588;BME280;45412;54.472;18.464;2022-08-01T15:00:16;99619.39;;;24.69;46.30
59588;BME280;45412;54.472;18.464;2022-08-01T15:03:05;99622.34;;;24.66;46.75
59588;BME280;45412;54.472;18.464;2022-08-01T15:05:53;99622.81;;;24.58;45.98
59588;BME280;45412;54.472;18.464;2022-08-01T15:08:42;99627.66;;;24.55;46.07
59588;BME280;45412;54.472;18.464;2022-08-01T15:11:30;99627.39;;;24.52;45.89
59588;BME280;45412;54.472;18.464;2022-08-01T15:14:20;99625.19;;;24.41;46.30
59588;BME280;45412;54.472;18.464;2022-08-01T15:17:29;99627.00;;;24.33;46.46
59588;BME280;45412;54.472;18.464;2022-08-01T15:20:18;99631.77;;;24.33;46.39
59588;BME280;45412;54.472;18.464;2022-08-01T15:23:06;99634.02;;;24.34;46.53
59588;BME280;45412;54.472;18.464;2022-08-01T15:25:54;99632.00;;;24.31;46.06
59588;BME280;45412;54.472;18.464;2022-08-01T15:28:44;99629.85;;;24.27;46.35
59588;BME280;45412;54.472;18.464;2022-08-01T15:31:32;99630.77;;;24.14;46.82
59588;BME280;45412;54.472;18.464;2022-08-01T15:34:20;99628.56;;;24.06;46.93